Time;durP1;ratioP1;P1;durP2;ratioP2;P2;SDS_P1;SDS_P2;PMS_P1;PMS_P2;Temp;Humidity;BMP_temperature;BMP_pressure;BME280_temperature;BME280_humidity;BME280_pressure;Samples;Min_cycle;Max_cycle;Signal;HPM_P1;HPM_P2
2022/03/19 00:02:18;;;;;;;8.18;3.47;;;;;;;21.17;36.57;104749.06;4779260;28;21597;-71
2022/03/19 00:04:44;;;;;;;5.60;2.88;;;;;;;21.15;36.72;104756.25;4764876;28;20561;-69
2022/03/19 00:07:12;;;;;;;8.40;3.75;;;;;;;21.18;36.58;104753.41;4773042;28;20345;-73
2022/03/19 00:09:39;;;;;;;8.20;3.80;;;;;;;21.16;36.62;104747.34;4755934;28;20916;-72
2022/03/19 00:12:06;;;;;;;5.18;3.30;;;;;;;21.19;36.70;104754.31;4777543;28;20079;-72
2022/03/19 00:14:31;;;;;;;4.88;3.13;;;;;;;21.00;36.60;104720.94;4778134;28;20578;-72
2022/03/19 00:16:57;;;;;;;5.53;3.15;;;;;;;21.12;36.43;104746.69;4742996;28;20840;-72
2022/03/19 00:19:23;;;;;;;8.45;3.40;;;;;;;21.11;36.67;104750.31;4776283;28;20337;-72
2022/03/19 00:21:50;;;;;;;6.18;2.80;;;;;;;21.12;36.60;104745.84;4764264;28;21952;-72
2022/03/19 00:24:15;;;;;;;6.88;3.15;;;;;;;21.10;36.65;104743.28;4776268;28;20806;-72
2022/03/19 00:26:41;;;;;;;8.48;3.55;;;;;;;21.08;36.82;104750.50;4759360;28;20722;-73
2022/03/19 00:29:07;;;;;;;7.88;3.50;;;;;;;21.09;36.59;104752.19;4770046;28;20737;-72
2022/03/19 00:31:33;;;;;;;6.07;2.92;;;;;;;21.09;36.64;104748.69;4772102;28;20624;-72
2022/03/19 00:33:59;;;;;;;6.90;2.97;;;;;;;20.96;36.69;104726.53;4740901;28;20659;-72
2022/03/19 00:36:25;;;;;;;6.22;2.92;;;;;;;21.08;36.63;104757.59;4773979;28;20433;-72
2022/03/19 00:38:51;;;;;;;6.93;2.88;;;;;;;21.08;36.68;104755.78;4760647;28;20533;-72
2022/03/19 00:41:16;;;;;;;5.70;3.05;;;;;;;21.01;36.48;104746.53;4774227;28;22004;-72
2022/03/19 00:43:43;;;;;;;5.85;3.10;;;;;;;21.07;36.49;104762.03;4753348;28;20821;-72
2022/03/19 00:46:11;;;;;;;5.22;3.20;;;;;;;20.97;36.54;104747.63;4773630;28;21477;-72
2022/03/19 00:48:38;;;;;;;6.82;2.97;;;;;;;21.05;36.64;104755.13;4757336;28;20713;-71
2022/03/19 00:51:04;;;;;;;6.15;2.95;;;;;;;21.04;36.78;104756.09;4772822;28;20596;-73
2022/03/19 00:53:29;;;;;;;5.78;2.50;;;;;;;20.89;36.79;104728.72;4760924;28;20547;-71
2022/03/19 00:55:55;;;;;;;6.07;2.85;;;;;;;20.99;36.68;104752.84;4771565;28;20799;-72
2022/03/19 00:58:21;;;;;;;7.03;3.13;;;;;;;20.95;36.71;104744.22;4757625;28;20688;-73
2022/03/19 01:00:46;;;;;;;5.88;2.97;;;;;;;20.92;36.79;104748.88;4770023;28;21119;-72
2022/03/19 01:03:12;;;;;;;5.43;2.60;;;;;;;20.92;36.83;104756.81;4774572;28;20475;-71
2022/03/19 01:05:37;;;;;;;5.47;3.05;;;;;;;20.89;37.10;104757.84;4760025;28;21309;-72
2022/03/19 01:08:03;;;;;;;7.10;2.70;;;;;;;20.88;36.95;104750.84;4772913;28;20887;-71
2022/03/19 01:10:29;;;;;;;6.18;2.60;;;;;;;20.86;36.96;104743.94;4761373;28;20704;-72
2022/03/19 01:12:57;;;;;;;6.60;3.10;;;;;;;20.88;36.77;104748.19;4773084;28;20581;-72
2022/03/19 01:15:23;;;;;;;6.38;3.03;;;;;;;20.73;36.95;104725.28;4755496;28;20922;-71
2022/03/19 01:17:50;;;;;;;4.45;2.60;;;;;;;20.87;37.05;104745.66;4781042;28;20951;-72
2022/03/19 01:20:17;;;;;;;4.40;2.50;;;;;;;20.81;36.77;104741.56;4763381;28;21107;-71
2022/03/19 01:22:44;;;;;;;5.28;2.50;;;;;;;20.80;36.99;104743.34;4776386;28;20513;-72
2022/03/19 01:25:12;;;;;;;5.65;2.80;;;;;;;20.69;36.96;104719.31;4760024;28;21207;-71
2022/03/19 01:27:39;;;;;;;5.60;2.50;;;;;;;20.84;36.87;104737.88;4778266;28;20741;-71
2022/03/19 01:30:07;;;;;;;6.22;2.78;;;;;;;20.83;36.98;104737.03;4761117;28;21986;-70
2022/03/19 01:32:35;;;;;;;5.25;2.97;;;;;;;20.85;36.95;104740.44;4770088;28;20921;-70
2022/03/19 01:35:01;;;;;;;4.30;2.65;;;;;;;20.81;36.83;104737.09;4768232;28;20560;-71
2022/03/19 01:37:26;;;;;;;6.10;2.78;;;;;;;20.79;36.94;104728.41;4755629;28;20735;-71
2022/03/19 01:39:55;;;;;;;5.95;2.80;;;;;;;20.79;36.89;104728.41;4768634;28;21553;-71
2022/03/19 01:42:24;;;;;;;5.88;2.53;;;;;;;20.79;36.96;104733.69;4753950;28;20858;-71
2022/03/19 01:44:49;;;;;;;4.82;2.78;;;;;;;20.79;37.06;104724.91;4766255;28;21437;-71
2022/03/19 01:47:15;;;;;;;4.93;2.70;;;;;;;20.74;36.81;104716.38;4755282;28;20570;-71
2022/03/19 01:49:41;;;;;;;4.70;2.20;;;;;;;20.64;37.03;104704.63;4766032;28;21790;-70
2022/03/19 01:52:07;;;;;;;4.78;2.35;;;;;;;20.78;36.84;104724.03;4769860;28;20944;-70
2022/03/19 01:54:36;;;;;;;4.65;2.40;;;;;;;20.76;36.80;104720.63;4759135;28;20384;-70
2022/03/19 01:57:03;;;;;;;3.90;2.15;;;;;;;20.68;36.87;104706.16;4773517;28;20692;-70
2022/03/19 01:59:33;;;;;;;4.80;2.40;;;;;;;20.70;36.88;104718.38;4756628;28;20583;-70
2022/03/19 02:02:02;;;;;;;4.80;2.42;;;;;;;20.69;36.95;104716.66;4771152;28;20845;-70
2022/03/19 02:04:28;;;;;;;5.88;2.35;;;;;;;20.71;37.07;104727.16;4749085;28;20676;-70
2022/03/19 02:06:54;;;;;;;5.00;2.50;;;;;;;20.71;36.90;104732.47;4827271;28;20061;-70
2022/03/19 02:09:20;;;;;;;5.25;2.35;;;;;;;20.70;36.92;104731.63;4990852;28;20563;-70
2022/03/19 02:11:45;;;;;;;4.93;2.22;;;;;;;20.71;37.06;104730.66;5012533;28;20049;-70
2022/03/19 02:14:11;;;;;;;4.55;2.25;;;;;;;20.70;36.83;104725.47;4983136;28;20049;-70
2022/03/19 02:16:40;;;;;;;6.13;2.38;;;;;;;20.72;36.95;104729.72;5009922;28;20079;-70
2022/03/19 02:19:05;;;;;;;3.92;2.30;;;;;;;20.69;36.91;104729.91;4986886;28;21174;-70
2022/03/19 02:21:42;;;;;;;5.10;1.95;;;;;;;20.68;36.95;104730.00;5005315;28;20033;-70
2022/03/19 02:26:51;;;;;;;4.63;2.35;;;;;;;20.66;36.88;104727.44;4985384;28;20041;-70
2022/03/19 02:29:17;;;;;;;4.78;2.20;;;;;;;20.66;36.99;104729.25;5012396;28;20037;-70
2022/03/19 02:31:44;;;;;;;4.18;2.00;;;;;;;20.67;37.07;104723.84;4984811;28;20030;-70
2022/03/19 02:34:10;;;;;;;6.82;2.47;;;;;;;20.68;36.92;104725.56;5008418;28;20531;-69
2022/03/19 02:36:37;;;;;;;5.28;2.60;;;;;;;20.68;36.90;104714.97;4979830;28;20037;-70
2022/03/19 02:39:16;;;;;;;3.50;1.98;;;;;;;20.67;36.76;104710.63;5013545;28;20163;-69
2022/03/19 02:41:49;;;;;;;5.65;2.80;;;;;;;20.48;36.95;104676.44;4990944;28;20149;-70
2022/03/19 02:44:18;;;;;;;4.65;2.33;;;;;;;20.67;36.76;104709.75;5019019;28;20033;-70
2022/03/19 02:46:48;;;;;;;5.80;2.28;;;;;;;20.66;37.14;104714.22;4992277;28;20052;-70
2022/03/19 02:49:15;;;;;;;6.47;2.28;;;;;;;20.66;36.83;104713.34;5023243;28;20037;-69
2022/03/19 02:51:42;;;;;;;5.55;2.55;;;;;;;20.66;37.13;104710.72;4978517;28;20030;-70
2022/03/19 02:54:10;;;;;;;4.97;2.20;;;;;;;20.66;36.84;104716.00;5019935;28;20174;-69
2022/03/19 02:56:38;;;;;;;6.55;2.42;;;;;;;20.68;36.75;104712.31;5014801;28;20057;-70
2022/03/19 02:59:08;;;;;;;4.35;2.15;;;;;;;20.66;36.97;104708.06;4992096;28;20041;-70
2022/03/19 03:01:34;;;;;;;4.63;2.30;;;;;;;20.66;36.80;104708.06;5020576;28;20189;-70
2022/03/19 03:04:00;;;;;;;4.10;2.38;;;;;;;20.64;37.02;104707.28;4995332;28;20037;-70
2022/03/19 03:06:28;;;;;;;7.93;2.92;;;;;;;20.65;36.91;104703.72;5015607;28;20156;-70
2022/03/19 03:08:54;;;;;;;4.13;2.15;;;;;;;20.63;36.95;104702.91;4982360;28;20427;-70
2022/03/19 03:11:20;;;;;;;6.03;2.25;;;;;;;20.62;36.84;104702.06;5014819;28;20048;-69
2022/03/19 03:13:45;;;;;;;4.20;1.73;;;;;;;20.62;36.78;104698.56;4993308;28;20030;-70
2022/03/19 03:16:11;;;;;;;4.60;2.15;;;;;;;20.61;36.89;104694.22;5011783;28;20081;-70
2022/03/19 03:18:37;;;;;;;3.85;2.10;;;;;;;20.63;36.72;104701.13;4992301;28;20052;-70
2022/03/19 03:21:03;;;;;;;3.67;2.03;;;;;;;20.62;37.06;104702.06;5016201;28;20038;-70
2022/03/19 03:23:31;;;;;;;3.63;1.80;;;;;;;20.61;36.75;104696.88;4989486;28;20639;-69
2022/03/19 03:25:57;;;;;;;5.43;2.15;;;;;;;20.61;36.80;104704.81;5012820;28;20241;-69
2022/03/19 03:28:23;;;;;;;4.75;2.17;;;;;;;20.59;36.76;104704.91;5014127;28;20144;-69
2022/03/19 03:30:49;;;;;;;4.13;2.10;;;;;;;20.61;36.85;104710.09;4991382;28;20048;-70
2022/03/19 03:33:14;;;;;;;4.35;2.10;;;;;;;20.61;36.72;104705.66;5015917;28;20041;-69
2022/03/19 03:35:41;;;;;;;5.38;2.00;;;;;;;20.61;36.95;104712.75;4989806;28;20840;-70
2022/03/19 03:38:07;;;;;;;4.55;1.90;;;;;;;20.61;36.65;104704.81;5020905;28;20041;-69
2022/03/19 03:40:32;;;;;;;3.35;1.73;;;;;;;20.56;36.85;104696.28;4982580;28;20034;-70
2022/03/19 03:42:58;;;;;;;3.83;2.08;;;;;;;20.56;36.90;104697.16;5017035;28;20201;-70
2022/03/19 03:45:23;;;;;;;3.83;1.83;;;;;;;20.58;36.87;104702.34;4992191;28;20077;-70
2022/03/19 03:47:49;;;;;;;4.63;2.22;;;;;;;20.58;36.68;104705.84;5015418;28;20073;-70
2022/03/19 03:50:15;;;;;;;5.00;2.00;;;;;;;20.53;36.68;104697.34;4989691;28;20045;-69
2022/03/19 03:52:41;;;;;;;5.63;2.28;;;;;;;20.57;36.76;104701.50;5012103;28;20041;-70
2022/03/19 03:55:07;;;;;;;7.18;2.30;;;;;;;20.55;36.80;104690.16;4994929;28;21425;-70
2022/03/19 03:57:34;;;;;;;3.55;2.10;;;;;;;20.51;36.93;104686.84;5005913;28;20033;-70
2022/03/19 04:00:01;;;;;;;4.10;2.15;;;;;;;20.56;36.72;104697.16;5014731;28;20382;-70
2022/03/19 04:02:27;;;;;;;5.47;1.95;;;;;;;20.54;36.59;104693.75;4985701;28;20049;-69
2022/03/19 04:04:52;;;;;;;3.28;2.15;;;;;;;20.54;36.84;104690.25;5012460;28;20061;-70
2022/03/19 04:07:18;;;;;;;3.95;2.05;;;;;;;20.49;36.76;104688.72;4990164;28;20130;-70
2022/03/19 04:09:43;;;;;;;3.58;1.85;;;;;;;20.55;36.87;104703.38;5015716;28;20037;-70
2022/03/19 04:12:10;;;;;;;4.38;1.90;;;;;;;20.56;36.73;104702.44;4980013;28;20087;-69
2022/03/19 04:14:36;;;;;;;4.20;1.95;;;;;;;20.56;36.62;104701.59;5015011;28;20360;-70
2022/03/19 04:17:04;;;;;;;3.67;1.80;;;;;;;20.50;36.83;104695.72;4987784;28;20745;-69
2022/03/19 04:19:30;;;;;;;4.40;2.10;;;;;;;20.47;36.72;104705.66;5011558;28;20049;-71
2022/03/19 04:21:56;;;;;;;4.68;1.80;;;;;;;20.34;36.99;104686.94;4990590;28;20119;-70
2022/03/19 04:24:21;;;;;;;4.60;2.00;;;;;;;20.46;36.75;104709.22;5008007;28;20053;-70
2022/03/19 04:26:47;;;;;;;4.57;1.80;;;;;;;20.44;36.69;104705.81;5004434;28;20069;-69
2022/03/19 04:29:13;;;;;;;5.35;2.53;;;;;;;20.42;36.82;104697.09;4988449;28;20575;-69
2022/03/19 04:31:38;;;;;;;3.45;1.88;;;;;;;20.39;36.83;104705.19;5009641;28;20040;-70
2022/03/19 04:34:04;;;;;;;5.82;1.92;;;;;;;20.26;36.78;104680.38;4986549;28;20030;-70
2022/03/19 04:36:30;;;;;;;3.92;2.15;;;;;;;20.35;36.99;104701.03;5009041;28;20049;-70
2022/03/19 04:39:03;;;;;;;4.53;2.17;;;;;;;20.22;37.24;104687.66;4989604;28;20032;-70
2022/03/19 04:41:28;;;;;;;2.67;1.73;;;;;;;20.29;37.06;104704.91;5013743;28;20495;-70
2022/03/19 04:43:55;;;;;;;6.22;2.28;;;;;;;20.23;37.02;104692.84;4978130;28;20181;-70
2022/03/19 04:46:20;;;;;;;4.28;2.10;;;;;;;20.09;37.17;104682.22;5005354;28;20034;-71
2022/03/19 04:48:46;;;;;;;5.28;1.80;;;;;;;20.20;37.26;104684.25;5004770;28;20509;-70
2022/03/19 04:51:17;;;;;;;3.95;1.80;;;;;;;20.19;37.30;104696.63;4992451;28;20045;-70
2022/03/19 04:53:50;;;;;;;3.55;2.13;;;;;;;20.16;37.19;104693.31;5006963;28;20033;-70
2022/03/19 04:56:22;;;;;;;4.40;2.20;;;;;;;20.04;37.24;104673.69;4996733;28;20334;-70
2022/03/19 04:58:49;;;;;;;2.92;1.88;;;;;;;20.14;37.24;104688.13;5004782;28;20503;-70
2022/03/19 05:01:16;;;;;;;5.88;2.15;;;;;;;20.17;37.31;104687.94;4988037;28;20040;-70
2022/03/19 05:03:42;;;;;;;5.18;1.88;;;;;;;20.15;37.20;104694.25;5009175;28;20523;-70
2022/03/19 05:06:08;;;;;;;4.88;2.22;;;;;;;20.11;37.23;104693.59;4992230;28;20041;-70
2022/03/19 05:08:34;;;;;;;3.40;1.98;;;;;;;20.11;37.12;104690.94;5009734;28;20404;-70
2022/03/19 05:11:15;;;;;;;4.35;2.15;;;;;;;20.15;37.22;104697.75;4987441;28;20384;-70
2022/03/19 05:13:43;;;;;;;4.50;2.08;;;;;;;20.16;37.10;104693.31;5009683;28;20822;-70
2022/03/19 05:16:09;;;;;;;4.35;1.90;;;;;;;20.07;37.14;104677.94;4977150;28;20735;-70
2022/03/19 05:18:35;;;;;;;4.55;2.00;;;;;;;20.16;36.98;104688.03;5012670;28;20107;-70
2022/03/19 05:21:01;;;;;;;5.22;2.30;;;;;;;20.08;37.21;104669.91;4992579;28;20252;-70
2022/03/19 05:23:26;;;;;;;3.88;1.73;;;;;;;20.15;37.13;104691.63;5009652;28;20171;-70
2022/03/19 05:25:52;;;;;;;4.40;2.08;;;;;;;20.16;37.02;104695.97;4999538;28;20741;-69
2022/03/19 05:28:18;;;;;;;4.28;2.20;;;;;;;20.10;37.21;104693.66;4995799;28;20113;-70
2022/03/19 05:30:45;;;;;;;4.22;2.22;;;;;;;19.99;37.05;104677.56;5008132;28;20045;-70
2022/03/19 05:33:12;;;;;;;3.58;2.00;;;;;;;20.11;37.12;104693.59;4986038;28;20046;-69
2022/03/19 05:35:37;;;;;;;3.38;1.88;;;;;;;20.09;37.13;104698.09;5009964;28;20635;-70
2022/03/19 05:38:05;;;;;;;4.53;2.10;;;;;;;20.08;37.15;104695.53;4988068;28;21190;-70
2022/03/19 05:40:31;;;;;;;3.25;1.92;;;;;;;20.07;37.18;104693.81;5013234;28;20747;-70
2022/03/19 05:42:57;;;;;;;4.93;2.05;;;;;;;19.88;37.25;104664.94;4995521;28;20057;-70
2022/03/19 05:45:23;;;;;;;3.92;2.30;;;;;;;20.02;37.22;104701.19;4992552;28;20026;-70
2022/03/19 05:47:49;;;;;;;4.82;1.90;;;;;;;20.00;37.34;104692.50;5002419;28;20555;-70
2022/03/19 05:50:16;;;;;;;5.40;2.20;;;;;;;19.97;37.31;104696.16;4988727;28;20041;-70
2022/03/19 05:52:45;;;;;;;3.40;2.10;;;;;;;19.96;37.33;104698.91;5007579;28;20034;-70
2022/03/19 05:55:11;;;;;;;5.32;2.00;;;;;;;19.95;37.32;104700.69;4985211;28;20047;-70
2022/03/19 05:57:37;;;;;;;3.50;2.22;;;;;;;19.95;37.26;104710.44;5013144;28;20033;-70
2022/03/19 06:00:04;;;;;;;3.42;2.00;;;;;;;19.91;37.38;104702.63;4990210;28;20046;-70
2022/03/19 06:02:41;;;;;;;4.22;1.83;;;;;;;19.90;37.26;104708.88;5010796;28;20073;-70
2022/03/19 06:05:08;;;;;;;4.63;2.20;;;;;;;19.89;37.36;104706.31;4979705;28;20040;-70
2022/03/19 06:07:33;;;;;;;3.90;2.00;;;;;;;19.87;37.44;104702.91;5007838;28;20493;-70
2022/03/19 06:09:59;;;;;;;4.47;2.20;;;;;;;19.88;37.35;104705.47;4991214;28;20025;-70
2022/03/19 06:12:25;;;;;;;4.53;2.10;;;;;;;19.87;37.41;104703.75;4991398;28;20034;-70
2022/03/19 06:14:53;;;;;;;6.43;2.67;;;;;;;19.91;37.30;104709.72;4999110;28;20045;-70
2022/03/19 06:17:20;;;;;;;3.35;1.63;;;;;;;20.02;37.18;104706.47;5003999;28;20454;-70
2022/03/19 06:19:46;;;;;;;4.63;2.30;;;;;;;20.46;36.75;104703.91;5007126;28;20128;-70
2022/03/19 06:22:11;;;;;;;5.85;2.40;;;;;;;21.15;35.68;104703.25;4984016;28;20045;-70
2022/03/19 06:24:37;;;;;;;3.97;2.10;;;;;;;21.73;34.51;104706.72;5003354;28;20034;-70
2022/03/19 06:27:04;;;;;;;5.82;1.92;;;;;;;22.11;34.32;104715.72;4990441;28;20645;-70
2022/03/19 06:29:30;;;;;;;4.55;2.20;;;;;;;22.36;33.62;104706.09;5009859;28;20025;-70
2022/03/19 06:31:58;;;;;;;7.38;2.72;;;;;;;22.52;33.46;104701.47;4993193;28;20034;-70
2022/03/19 06:34:24;;;;;;;4.60;2.38;;;;;;;22.38;33.35;104704.19;5002845;28;20114;-70
2022/03/19 06:39:33;;;;;;;2.65;1.83;;;;;;;22.02;34.45;104705.66;5005391;28;20514;-70
2022/03/19 06:41:59;;;;;;;6.53;2.50;;;;;;;21.87;34.63;104720.78;5014518;28;20335;-70
2022/03/19 06:44:24;;;;;;;6.10;2.40;;;;;;;21.73;34.79;104723.50;4986852;28;20566;-70
2022/03/19 06:46:50;;;;;;;4.55;2.13;;;;;;;21.61;35.07;104711.00;5011573;28;20037;-70
2022/03/19 06:49:16;;;;;;;5.13;2.35;;;;;;;21.42;35.29;104704.22;4989338;28;20025;-70
2022/03/19 06:51:42;;;;;;;4.75;2.30;;;;;;;21.40;35.31;104705.28;5010633;28;20037;-70
2022/03/19 06:54:07;;;;;;;8.18;3.00;;;;;;;21.42;35.29;104698.91;4975474;28;20438;-70
2022/03/19 06:56:33;;;;;;;2.92;1.80;;;;;;;21.94;34.42;104711.47;5006519;28;20180;-70
2022/03/19 06:58:59;;;;;;;4.78;2.15;;;;;;;22.40;33.92;104713.75;4993386;28;20045;-70
2022/03/19 07:01:24;;;;;;;3.92;2.20;;;;;;;22.47;33.60;104716.88;5004371;28;20691;-70
2022/03/19 07:03:50;;;;;;;5.47;2.13;;;;;;;22.32;33.97;104721.41;4998467;28;20034;-70
2022/03/19 07:06:18;;;;;;;4.80;2.10;;;;;;;22.19;33.83;104723.16;4997992;28;20049;-70
2022/03/19 07:08:44;;;;;;;4.50;2.13;;;;;;;22.12;34.28;104717.41;5006834;28;20033;-70
2022/03/19 07:11:10;;;;;;;4.20;1.77;;;;;;;21.93;34.19;104715.09;4980201;28;20578;-70
2022/03/19 07:13:36;;;;;;;3.40;2.03;;;;;;;21.89;34.50;104718.03;5012322;28;20068;-70
2022/03/19 07:16:02;;;;;;;4.45;2.00;;;;;;;21.83;34.54;104721.09;4986306;28;20410;-70
2022/03/19 07:18:28;;;;;;;5.40;2.35;;;;;;;21.78;34.69;104726.69;5012382;28;20043;-70
2022/03/19 07:20:54;;;;;;;4.05;2.33;;;;;;;21.71;34.85;104720.06;4987630;28;20425;-70
2022/03/19 07:23:20;;;;;;;5.97;2.65;;;;;;;21.67;34.89;104729.16;5010048;28;20060;-70
2022/03/19 07:25:46;;;;;;;4.13;2.03;;;;;;;21.61;34.70;104718.97;4965454;28;20048;-69
2022/03/19 07:28:13;;;;;;;5.70;2.20;;;;;;;21.58;34.73;104720.00;5006665;28;20148;-69
2022/03/19 07:30:40;;;;;;;3.97;2.03;;;;;;;21.82;34.55;104714.91;5012776;28;20029;-69
2022/03/19 07:33:07;;;;;;;3.80;1.63;;;;;;;22.27;33.97;104715.56;4989062;28;20046;-70
2022/03/19 07:35:35;;;;;;;4.50;2.30;;;;;;;22.53;33.38;104725.25;5008142;28;20044;-69
2022/03/19 07:38:02;;;;;;;3.70;1.98;;;;;;;22.54;33.11;104720.78;4983691;28;20075;-72
2022/03/19 07:43:14;;;;;;;6.72;2.03;;;;;;;22.39;33.28;104721.81;4986197;28;20051;-72
2022/03/19 07:45:41;;;;;;;5.95;2.45;;;;;;;22.29;33.61;104718.94;5007995;28;20060;-72
2022/03/19 07:48:08;;;;;;;5.47;2.20;;;;;;;22.13;34.00;104711.16;4986984;28;20057;-71
2022/03/19 07:50:34;;;;;;;4.03;2.35;;;;;;;22.09;33.83;104712.31;5011597;28;20037;-72
2022/03/19 07:53:00;;;;;;;6.28;2.70;;;;;;;22.05;34.11;104720.56;4987702;28;20121;-71
2022/03/19 07:55:26;;;;;;;4.80;2.10;;;;;;;21.92;34.19;104720.50;5013790;28;20491;-71
2022/03/19 07:57:52;;;;;;;4.47;2.13;;;;;;;21.90;34.33;104714.41;4977753;28;20125;-71
2022/03/19 08:00:18;;;;;;;3.45;2.30;;;;;;;21.83;34.50;104713.97;5008437;28;20049;-71
2022/03/19 08:02:47;;;;;;;3.72;2.00;;;;;;;21.72;34.55;104713.81;5009035;28;20041;-71
2022/03/19 08:05:13;;;;;;;5.05;2.25;;;;;;;21.62;34.51;104712.72;4995703;28;20045;-71
2022/03/19 08:07:39;;;;;;;4.28;2.08;;;;;;;21.55;35.00;104712.25;5006936;28;20171;-71
2022/03/19 08:10:07;;;;;;;7.72;2.45;;;;;;;21.51;34.78;104713.38;4989719;28;20752;-71
2022/03/19 08:12:33;;;;;;;6.45;2.42;;;;;;;21.44;34.91;104716.53;5008073;28;20049;-71
2022/03/19 08:14:59;;;;;;;3.70;2.05;;;;;;;21.46;34.83;104722.59;4981267;28;20438;-71
2022/03/19 08:17:26;;;;;;;3.88;2.10;;;;;;;21.44;35.04;104713.88;5010366;28;20042;-71
2022/03/19 08:19:52;;;;;;;4.13;2.50;;;;;;;21.37;34.87;104710.78;4984895;28;20534;-71
2022/03/19 08:22:18;;;;;;;4.60;2.28;;;;;;;21.41;35.12;104720.22;5012920;28;20037;-73
2022/03/19 08:24:45;;;;;;;7.90;2.40;;;;;;;21.42;34.87;104704.22;4993914;28;20306;-73
2022/03/19 08:27:10;;;;;;;5.07;2.13;;;;;;;21.37;34.82;104711.63;5014908;28;20045;-72
2022/03/19 08:29:36;;;;;;;5.00;2.30;;;;;;;21.41;34.70;104709.63;4982172;28;20041;-74
2022/03/19 08:32:02;;;;;;;3.95;1.95;;;;;;;21.46;34.70;104720.78;5016921;28;20098;-74
2022/03/19 08:34:28;;;;;;;4.90;2.35;;;;;;;21.49;34.29;104707.31;5014871;28;20048;-74
2022/03/19 08:36:54;;;;;;;6.18;2.08;;;;;;;21.55;34.09;104717.56;4990176;28;20479;-72
2022/03/19 08:42:04;;;;;;;6.15;2.38;;;;;;;21.58;34.17;104704.09;4991080;28;20037;-72
2022/03/19 08:44:30;;;;;;;4.03;2.25;;;;;;;21.57;33.70;104701.56;5017847;28;20048;-72
2022/03/19 08:46:55;;;;;;;4.57;2.33;;;;;;;21.51;33.65;104694.81;4986119;28;20037;-73
2022/03/19 08:49:21;;;;;;;5.32;2.20;;;;;;;21.49;33.83;104702.00;5014276;28;20041;-71
2022/03/19 08:51:47;;;;;;;9.93;2.35;;;;;;;21.51;33.52;104696.63;4993965;28;20334;-72
2022/03/19 08:54:18;;;;;;;5.35;2.10;;;;;;;21.50;33.49;104693.13;5005881;28;20311;-72
2022/03/19 08:56:46;;;;;;;5.25;2.28;;;;;;;21.61;33.23;104687.13;4988755;28;20042;-67
2022/03/19 08:59:12;;;;;;;5.30;2.15;;;;;;;21.81;32.47;104688.50;5024037;28;20044;-66
2022/03/19 09:01:40;;;;;;;7.13;2.55;;;;;;;21.78;32.99;104680.75;4979853;28;20038;-66
2022/03/19 09:04:07;;;;;;;7.50;2.80;;;;;;;21.60;32.83;104662.41;5006172;28;20065;-65
2022/03/19 09:06:34;;;;;;;6.95;2.33;;;;;;;21.63;33.01;104680.78;5012508;28;20039;-66
2022/03/19 09:09:02;;;;;;;5.93;2.10;;;;;;;21.61;33.10;104680.03;4990253;28;20643;-67
2022/03/19 09:11:28;;;;;;;8.57;3.08;;;;;;;21.56;33.05;104673.31;5011336;28;20033;-67
2022/03/19 09:13:54;;;;;;;5.90;2.40;;;;;;;21.51;32.89;104667.44;4988249;28;20037;-65
2022/03/19 09:16:20;;;;;;;4.35;2.60;;;;;;;21.48;33.01;104675.59;5011602;28;20046;-66
2022/03/19 09:18:46;;;;;;;6.03;2.00;;;;;;;21.33;33.21;104645.59;4979596;28;20415;-66
2022/03/19 09:21:13;;;;;;;5.13;2.53;;;;;;;21.41;33.19;104668.03;5009806;28;20502;-67
2022/03/19 09:23:38;;;;;;;6.20;2.45;;;;;;;21.31;32.86;104651.00;4989869;28;20112;-66
2022/03/19 09:26:04;;;;;;;5.85;2.42;;;;;;;21.35;33.15;104660.47;5007829;28;20030;-67
2022/03/19 09:28:30;;;;;;;7.00;2.40;;;;;;;21.30;32.84;104653.75;4985918;28;20049;-66
2022/03/19 09:30:55;;;;;;;6.85;2.67;;;;;;;21.28;32.79;104655.66;5016755;28;20535;-66
2022/03/19 09:33:21;;;;;;;7.20;2.85;;;;;;;21.38;32.59;104652.34;4992584;28;20037;-67
2022/03/19 09:35:47;;;;;;;5.00;2.17;;;;;;;21.89;32.34;104652.53;5005782;28;20037;-67
2022/03/19 09:38:17;;;;;;;4.90;2.55;;;;;;;22.32;31.22;104647.03;5018505;28;20041;-66
2022/03/19 09:40:43;;;;;;;;;;;;;;;22.48;30.84;104641.53;4994099;28;20048;-65
2022/03/19 09:43:09;;;;;;;8.10;2.53;;;;;;;22.41;31.12;104642.91;5016380;28;19956;-66
2022/03/19 09:45:35;;;;;;;7.65;2.45;;;;;;;22.31;30.98;104638.22;4996531;28;20205;-66
2022/03/19 09:48:01;;;;;;;6.80;2.80;;;;;;;22.25;31.15;104632.47;5010573;28;20044;-66
2022/03/19 09:50:28;;;;;;;6.95;2.45;;;;;;;22.04;31.28;104600.22;4979180;28;20041;-66
2022/03/19 09:52:55;;;;;;;7.38;2.20;;;;;;;22.12;31.01;104624.50;5010149;28;20044;-66
2022/03/19 09:55:26;;;;;;;4.95;2.05;;;;;;;22.01;31.25;104627.84;4986921;28;20456;-66
2022/03/19 09:57:53;;;;;;;5.43;2.05;;;;;;;21.99;31.95;104623.59;5013403;28;20052;-65
2022/03/19 10:00:22;;;;;;;6.65;2.45;;;;;;;21.86;32.65;104615.59;4988771;28;20513;-66
2022/03/19 10:02:53;;;;;;;4.20;2.00;;;;;;;21.83;32.68;104614.94;5005636;28;20598;-66
2022/03/19 10:10:49;;;;;;;7.35;2.10;;;;;;;21.73;33.23;104611.22;5000964;28;20126;-66
2022/03/19 10:13:14;;;;;;;5.32;2.50;;;;;;;21.71;33.05;104614.78;4993330;28;20045;-66
2022/03/19 10:15:41;;;;;;;4.00;1.90;;;;;;;21.68;33.03;104615.00;5013404;28;20480;-66
2022/03/19 10:18:08;;;;;;;6.85;2.25;;;;;;;21.69;32.99;104605.25;4988150;28;20032;-66
2022/03/19 10:20:37;;;;;;;4.15;1.90;;;;;;;21.60;33.42;104598.75;5010666;28;20043;-65
2022/03/19 10:23:03;;;;;;;3.80;1.90;;;;;;;21.59;32.93;104597.06;4979483;28;20030;-65
2022/03/19 10:25:29;;;;;;;4.55;1.80;;;;;;;21.62;33.12;104598.66;5008338;28;20038;-65
2022/03/19 10:28:08;;;;;;;4.18;1.88;;;;;;;21.62;33.01;104593.34;4987231;28;20041;-65
2022/03/19 10:30:39;;;;;;;5.00;2.00;;;;;;;21.63;33.37;104592.41;5010243;28;20068;-65
2022/03/19 10:33:08;;;;;;;4.25;2.03;;;;;;;21.61;33.37;104591.66;4989691;28;20057;-65
2022/03/19 10:35:33;;;;;;;5.20;2.20;;;;;;;21.60;33.32;104585.50;5012194;28;20033;-65
2022/03/19 10:38:03;;;;;;;3.53;1.90;;;;;;;21.56;33.40;104585.81;4972303;28;20430;-65
2022/03/19 10:40:41;;;;;;;2.30;1.50;;;;;;;21.60;33.28;104580.19;5010177;28;20044;-65
2022/03/19 10:43:08;;;;;;;4.72;2.15;;;;;;;21.55;33.32;104573.50;4986210;28;20457;-66
2022/03/19 10:45:41;;;;;;;5.63;2.50;;;;;;;21.56;33.35;104580.50;5015023;28;20079;-65
2022/03/19 10:48:09;;;;;;;3.90;2.17;;;;;;;21.55;33.27;104562.88;4994056;28;20033;-65
2022/03/19 10:50:39;;;;;;;4.35;1.90;;;;;;;21.54;33.25;104566.47;5011210;28;20045;-65
2022/03/19 10:53:06;;;;;;;4.80;1.77;;;;;;;21.59;33.11;104557.28;4989982;28;20042;-66
2022/03/19 10:55:32;;;;;;;5.50;2.10;;;;;;;21.74;32.77;104560.72;5016625;28;20045;-66
2022/03/19 10:57:57;;;;;;;3.05;1.70;;;;;;;21.94;32.54;104559.38;5018522;28;20192;-65
2022/03/19 11:00:23;;;;;;;4.15;2.00;;;;;;;22.13;32.55;104562.50;5018262;28;20052;-66
2022/03/19 11:02:54;;;;;;;4.00;2.00;;;;;;;22.10;32.25;104553.91;5010312;28;20666;-65
2022/03/19 11:05:21;;;;;;;3.85;2.00;;;;;;;22.05;32.48;104556.00;5018646;28;20134;-65
2022/03/19 11:07:47;;;;;;;3.45;1.80;;;;;;;22.02;32.50;104557.03;5013962;28;20041;-66
2022/03/19 11:10:14;;;;;;;3.97;1.80;;;;;;;21.99;32.58;104550.13;5015180;28;20128;-66
2022/03/19 11:12:50;;;;;;;4.68;1.95;;;;;;;21.93;32.43;104537.28;5011750;28;20148;-66
2022/03/19 11:15:22;;;;;;;4.13;2.00;;;;;;;21.96;32.56;104541.53;5013711;28;20080;-66
2022/03/19 11:17:50;;;;;;;3.72;2.17;;;;;;;21.93;32.61;104541.75;5012429;28;20038;-65
2022/03/19 11:20:15;;;;;;;4.25;1.95;;;;;;;21.89;32.67;104537.56;5013832;28;20067;-65
2022/03/19 11:22:46;;;;;;;3.17;1.58;;;;;;;21.87;32.47;104534.19;5011209;28;20470;-66
2022/03/19 11:25:26;;;;;;;3.50;1.75;;;;;;;21.85;32.54;104528.97;5009093;28;20041;-66
2022/03/19 11:27:57;;;;;;;4.65;1.80;;;;;;;21.84;32.69;104521.97;5013191;28;20416;-66
2022/03/19 11:30:27;;;;;;;3.10;1.80;;;;;;;21.82;32.59;104526.53;5014869;28;20045;-66
2022/03/19 11:33:19;;;;;;;4.32;1.80;;;;;;;21.83;32.73;104516.78;5018880;28;20056;-66
2022/03/19 11:36:02;;;;;;;3.33;1.65;;;;;;;21.76;32.63;104510.19;5020023;28;20133;-67
2022/03/19 11:38:32;;;;;;;3.45;1.85;;;;;;;21.79;32.53;104517.94;5015266;28;20036;-66
2022/03/19 11:41:00;;;;;;;2.47;1.55;;;;;;;21.73;32.52;104511.25;5017900;28;20038;-66